Pagrindinis puslapis
METAR-TAF:

METAR-TAF

Oro uostai :

Buriram, Tailandas

platuma: 15-13-46N, ilguma: 103-15-04E, Aukštis: 180 m

Dabartinis oras

Ataskaita buvo paskelbta 24 minutes, ne 13:00 UTC
Vėjas 3 kt iš Rytų, svyruoja nuo Rytų/Šiaurės Rytų ir Pietryčių
Temperatūra 25°C
Drėgmė 79%
Slėgis 1014 hPa
Matomumas: 9000 m

METAR: VTUO 151300Z 10003KT 070V130 9000 NSC 25/21 Q1014 NOSIG

Laikas: 20:24 (13:24 UTC)

Prognozė

Ataskaita buvo paskelbta 2 valandos ir 24 minutes, ne 11:00 UTC
Prognozė galioja nuo 15 metu 12 UTC su 16 metu 12 UTC
Vėjas 5 kt iš Rytų/Šiaurės Rytų
Matomumas: 9000 m
Tapsmas
nuo 15 metu 20 UTC su 15 metu 22 UTC
Matomumas: 5000 m
rūkana
Tapsmas
nuo 16 metu 01 UTC su 16 metu 03 UTC
Matomumas: 9000 m

TAF: VTUO 151100Z 1512/1612 07005KT 9000 NSC BECMG 1520/1522 5000 BR BECMG 1601/1603 9000 NSW

Orai ataskaitas ir orų prognozės (METAR, TAF).

turimą stotys yra geltonos ir raudonos taškus žemėlapyje.

Perkelti pele per norėdami pamatyti stoties vardą.

Tada spustelėkite, norėdami matyti oro stebėjimo ir prognozės.

Norėdami pakeisti žemėlapį: spustelėkite ant žalios mygtukų su juodo kryžiaus žemyn,; žalią mygtuką su brūkšneliu, jei norite nutolinti; arba žalių rodyklių gretimoms žemėlapius.


METAR-TAF: